createdAt,value
2018-12-01T00:00:25.262Z,6.10
2018-12-01T00:02:53.441Z,6.83
2018-12-01T00:05:21.591Z,7.13
2018-12-01T00:07:50.201Z,6.50
2018-12-01T00:10:18.395Z,6.30
2018-12-01T00:12:46.603Z,7.00
2018-12-01T00:15:17.986Z,8.07
2018-12-01T00:17:46.168Z,6.70
2018-12-01T00:20:20.695Z,7.63
2018-12-01T00:22:48.875Z,7.40
2018-12-01T00:25:17.052Z,5.83
2018-12-01T00:27:45.216Z,6.50
2018-12-01T00:30:14.510Z,7.53
2018-12-01T00:32:43.016Z,7.03
2018-12-01T00:35:11.992Z,7.10
2018-12-01T00:37:40.228Z,7.63
2018-12-01T00:40:10.192Z,7.23
2018-12-01T00:42:38.389Z,7.43
2018-12-01T00:45:08.134Z,7.83
2018-12-01T00:47:36.348Z,7.20
2018-12-01T00:50:12.874Z,8.30
2018-12-01T00:52:41.123Z,7.87
2018-12-01T00:55:11.621Z,7.63
2018-12-01T00:57:39.775Z,7.10
2018-12-01T01:00:16.468Z,6.87
2018-12-01T01:02:50.785Z,6.43
2018-12-01T01:05:19.356Z,5.97
2018-12-01T01:07:47.516Z,6.90
2018-12-01T01:10:15.697Z,7.70
2018-12-01T01:12:43.860Z,7.77
2018-12-01T01:15:12.245Z,7.30
2018-12-01T01:17:40.406Z,7.47
2018-12-01T01:20:13.760Z,7.42
2018-12-01T01:22:41.908Z,7.00
2018-12-01T01:25:11.103Z,7.47
2018-12-01T01:27:39.296Z,7.13
2018-12-01T01:30:18.194Z,8.23
2018-12-01T01:32:46.422Z,6.83
2018-12-01T01:35:14.580Z,8.07
2018-12-01T01:37:42.745Z,7.03
2018-12-01T01:40:12.789Z,6.73
2018-12-01T01:42:40.998Z,7.00
2018-12-01T01:45:16.868Z,6.93
2018-12-01T01:47:45.063Z,7.47
2018-12-01T01:50:15.458Z,6.80
2018-12-01T01:52:43.612Z,8.07
2018-12-01T01:55:12.111Z,6.30
2018-12-01T01:57:40.484Z,7.50
2018-12-01T02:00:13.115Z,6.50
2018-12-01T02:02:44.645Z,8.03
2018-12-01T02:05:12.871Z,5.60
2018-12-01T02:07:41.010Z,7.13
2018-12-01T02:10:09.964Z,6.20
2018-12-01T02:12:38.136Z,6.77
2018-12-01T02:15:07.444Z,7.03
2018-12-01T02:17:35.614Z,6.23
2018-12-01T02:20:04.625Z,7.10
2018-12-01T02:22:32.784Z,5.20
2018-12-01T02:25:00.944Z,6.70
2018-12-01T02:27:29.147Z,6.53
2018-12-01T02:29:57.321Z,7.00
2018-12-01T02:32:25.475Z,6.57
2018-12-01T02:34:53.631Z,5.90
2018-12-01T02:37:21.797Z,6.13
2018-12-01T02:39:49.962Z,5.60
2018-12-01T02:42:18.104Z,5.40
2018-12-01T02:45:07.406Z,5.17
2018-12-01T02:47:35.549Z,6.27
2018-12-01T02:50:04.748Z,6.10
2018-12-01T02:52:32.918Z,6.20
2018-12-01T02:55:01.067Z,8.00
2018-12-01T02:57:29.248Z,9.90
2018-12-01T02:59:57.418Z,6.90
2018-12-01T03:02:25.632Z,5.70
2018-12-01T03:04:53.836Z,7.13
2018-12-01T03:07:22.033Z,7.37
2018-12-01T03:09:50.197Z,6.23
2018-12-01T03:12:18.385Z,5.20
2018-12-01T03:14:46.576Z,4.93
2018-12-01T03:17:14.735Z,6.03
2018-12-01T03:19:42.903Z,4.97
2018-12-01T03:22:11.096Z,5.17
2018-12-01T03:24:39.271Z,5.70
2018-12-01T03:27:07.471Z,4.90
2018-12-01T03:29:35.632Z,5.13
2018-12-01T03:32:03.821Z,5.50
2018-12-01T03:34:32.021Z,5.93
2018-12-01T03:37:00.199Z,5.60
2018-12-01T03:39:28.396Z,5.67
2018-12-01T03:41:56.571Z,6.20
2018-12-01T03:44:24.748Z,6.00
2018-12-01T03:46:52.918Z,6.43
2018-12-01T03:49:21.825Z,5.90
2018-12-01T03:51:49.318Z,5.60
2018-12-01T03:54:17.518Z,5.47
2018-12-01T03:56:45.718Z,6.10
2018-12-01T03:59:13.884Z,5.57
2018-12-01T04:01:42.076Z,5.97
2018-12-01T04:04:10.263Z,5.53
2018-12-01T04:06:38.440Z,6.00
2018-12-01T04:09:13.602Z,6.33
2018-12-01T04:11:42.660Z,6.37
2018-12-01T04:14:10.847Z,4.63
2018-12-01T04:16:39.015Z,5.87
2018-12-01T04:19:07.186Z,4.60
2018-12-01T04:21:35.414Z,4.97
2018-12-01T04:24:03.713Z,6.03
2018-12-01T04:26:31.881Z,5.60
2018-12-01T04:29:00.081Z,5.90
2018-12-01T04:31:28.297Z,5.70
2018-12-01T04:33:56.473Z,5.07
2018-12-01T04:36:25.564Z,4.50
2018-12-01T04:38:53.735Z,5.70
2018-12-01T04:41:22.079Z,3.90
2018-12-01T04:43:50.286Z,4.73
2018-12-01T04:46:18.459Z,5.53
2018-12-01T04:48:46.672Z,4.47
2018-12-01T04:51:14.867Z,4.97
2018-12-01T04:53:43.028Z,4.93
2018-12-01T04:56:11.258Z,6.37
2018-12-01T04:58:39.413Z,4.17
2018-12-01T05:01:07.600Z,4.67
2018-12-01T05:03:35.758Z,4.73
2018-12-01T05:06:04.052Z,5.30
2018-12-01T05:08:32.254Z,4.90
2018-12-01T05:11:00.419Z,5.00
2018-12-01T05:13:28.599Z,4.77
2018-12-01T05:15:56.760Z,5.60
2018-12-01T05:18:24.932Z,5.57
2018-12-01T05:20:53.102Z,5.70
2018-12-01T05:23:21.284Z,4.03
2018-12-01T05:25:49.460Z,5.17
2018-12-01T05:28:17.725Z,6.03
2018-12-01T05:30:45.912Z,4.80
2018-12-01T05:33:14.102Z,3.93
2018-12-01T05:35:42.271Z,3.90
2018-12-01T05:38:10.435Z,5.50
2018-12-01T05:40:38.628Z,4.50
2018-12-01T05:43:06.853Z,5.07
2018-12-01T05:45:35.016Z,4.80
2018-12-01T05:48:03.212Z,4.60
2018-12-01T05:50:31.386Z,4.50
2018-12-01T05:52:59.570Z,4.47
2018-12-01T05:55:27.792Z,4.30
2018-12-01T05:57:55.990Z,4.47
2018-12-01T06:00:24.195Z,4.50
2018-12-01T06:02:52.388Z,4.93
2018-12-01T06:05:20.551Z,4.13
2018-12-01T06:07:48.716Z,5.17
2018-12-01T06:10:21.957Z,4.17
2018-12-01T06:12:52.977Z,4.50
2018-12-01T06:15:21.543Z,4.53
2018-12-01T06:17:49.744Z,4.53
2018-12-01T06:20:22.004Z,5.40
2018-12-01T06:22:50.186Z,5.07
2018-12-01T06:25:19.546Z,4.90
2018-12-01T06:27:47.709Z,4.43
2018-12-01T06:30:17.768Z,4.90
2018-12-01T06:32:46.570Z,4.47
2018-12-01T06:35:14.756Z,4.60
2018-12-01T06:37:42.950Z,4.90
2018-12-01T06:40:13.426Z,5.40
2018-12-01T06:42:41.655Z,4.70
2018-12-01T06:45:10.925Z,4.73
2018-12-01T06:47:39.324Z,4.20
2018-12-01T06:50:13.496Z,4.63
2018-12-01T06:52:41.668Z,4.40
2018-12-01T06:55:11.140Z,4.43
2018-12-01T06:57:39.387Z,4.37
2018-12-01T07:00:12.840Z,4.77
2018-12-01T07:02:41.532Z,3.67
2018-12-01T07:05:10.755Z,3.90
2018-12-01T07:07:38.931Z,5.17
2018-12-01T07:10:09.438Z,4.50
2018-12-01T07:12:37.653Z,3.90
2018-12-01T07:15:08.239Z,3.43
2018-12-01T07:17:36.442Z,4.10
2018-12-01T07:20:05.706Z,4.37
2018-12-01T07:22:33.871Z,4.10
2018-12-01T07:25:02.051Z,5.13
2018-12-01T07:27:30.204Z,3.80
2018-12-01T07:29:58.389Z,4.30
2018-12-01T07:32:26.550Z,4.13
2018-12-01T07:34:54.732Z,4.17
2018-12-01T07:37:22.903Z,4.27
2018-12-01T07:39:51.085Z,4.17
2018-12-01T07:42:19.311Z,3.83
2018-12-01T07:44:47.485Z,5.17
2018-12-01T07:47:15.739Z,4.63
2018-12-01T07:49:43.921Z,5.33
2018-12-01T07:52:12.089Z,7.10
2018-12-01T07:54:40.294Z,5.03
2018-12-01T07:57:08.452Z,4.63
2018-12-01T07:59:36.639Z,5.30
2018-12-01T08:02:05.178Z,5.07
2018-12-01T08:04:33.423Z,4.33
2018-12-01T08:07:01.714Z,3.60
2018-12-01T08:09:29.916Z,4.33
2018-12-01T08:11:58.576Z,5.27
2018-12-01T08:14:26.760Z,4.67
2018-12-01T08:16:54.968Z,4.57
2018-12-01T08:19:23.159Z,4.57
2018-12-01T08:21:51.328Z,4.20
2018-12-01T08:24:19.496Z,4.40
2018-12-01T08:26:47.673Z,4.67
2018-12-01T08:29:15.845Z,4.10
2018-12-01T08:31:44.028Z,4.47
2018-12-01T08:34:12.211Z,3.57
2018-12-01T08:36:40.387Z,4.30
2018-12-01T08:39:08.996Z,3.80
2018-12-01T08:41:37.357Z,4.50
2018-12-01T08:44:05.540Z,4.58
2018-12-01T08:46:33.700Z,4.17
2018-12-01T08:49:01.884Z,4.07
2018-12-01T08:51:30.123Z,4.03
2018-12-01T08:53:58.300Z,4.37
2018-12-01T08:56:26.528Z,3.60
2018-12-01T08:58:54.727Z,3.72
2018-12-01T09:01:22.916Z,4.07
2018-12-01T09:03:51.084Z,3.50
2018-12-01T09:06:19.268Z,4.03
2018-12-01T09:08:47.472Z,3.70
2018-12-01T09:11:15.664Z,3.47
2018-12-01T09:13:43.865Z,3.57
2018-12-01T09:16:12.040Z,3.17
2018-12-01T09:18:40.233Z,3.60
2018-12-01T09:21:08.412Z,4.12
2018-12-01T09:23:36.579Z,4.22
2018-12-01T09:26:04.807Z,3.90
2018-12-01T09:28:33.034Z,3.45
2018-12-01T09:31:01.309Z,3.90
2018-12-01T09:33:29.535Z,2.80
2018-12-01T09:35:57.766Z,3.58
2018-12-01T09:38:25.945Z,3.92
2018-12-01T09:40:54.136Z,3.62
2018-12-01T09:43:22.319Z,3.02
2018-12-01T09:45:50.521Z,3.30
2018-12-01T09:48:18.713Z,3.55
2018-12-01T09:50:46.938Z,3.30
2018-12-01T09:53:15.113Z,3.20
2018-12-01T09:55:43.305Z,3.22
2018-12-01T09:58:11.508Z,3.72
2018-12-01T10:00:39.707Z,3.70
2018-12-01T10:03:08.564Z,3.75
2018-12-01T10:05:36.743Z,3.67
2018-12-01T10:08:05.257Z,3.33
2018-12-01T10:10:33.511Z,2.92
2018-12-01T10:13:01.709Z,3.33
2018-12-01T10:15:33.324Z,2.60
2018-12-01T10:18:01.512Z,3.80
2018-12-01T10:20:31.011Z,2.85
2018-12-01T10:22:59.911Z,3.65
2018-12-01T10:25:28.144Z,8.20
2018-12-01T10:27:56.341Z,3.92
2018-12-01T10:30:24.552Z,2.98
2018-12-01T10:32:52.956Z,3.33
2018-12-01T10:35:22.445Z,3.08
2018-12-01T10:37:54.969Z,3.08
2018-12-01T10:40:23.261Z,3.33
2018-12-01T10:42:51.457Z,3.10
2018-12-01T10:45:20.440Z,2.90
2018-12-01T10:47:48.645Z,3.10
2018-12-01T10:50:17.916Z,3.10
2018-12-01T10:52:46.700Z,2.85
2018-12-01T10:55:33.094Z,2.92
2018-12-01T10:58:09.721Z,2.87
2018-12-01T11:00:43.207Z,2.47
2018-12-01T11:03:16.897Z,2.58
2018-12-01T11:05:45.420Z,2.72
2018-12-01T11:08:14.744Z,2.87
2018-12-01T11:10:43.135Z,2.47
2018-12-01T11:13:11.355Z,2.47
2018-12-01T11:15:39.625Z,3.25
2018-12-01T11:18:07.821Z,2.95
2018-12-01T11:20:36.190Z,2.95
2018-12-01T11:23:04.734Z,3.15
2018-12-01T11:25:33.257Z,2.85
2018-12-01T11:28:01.492Z,2.50
2018-12-01T11:30:29.708Z,3.15
2018-12-01T11:32:57.907Z,3.90
2018-12-01T11:35:26.116Z,2.92
2018-12-01T11:37:54.328Z,3.62
2018-12-01T11:40:22.528Z,3.27
2018-12-01T11:42:50.749Z,2.80
2018-12-01T11:45:19.018Z,2.37
2018-12-01T11:47:47.228Z,2.83
2018-12-01T11:50:16.451Z,2.83
2018-12-01T11:52:45.339Z,2.85
2018-12-01T11:55:15.792Z,3.27
2018-12-01T11:57:43.999Z,3.65
2018-12-01T12:00:14.547Z,2.67
2018-12-01T12:02:42.800Z,3.20
2018-12-01T12:05:12.066Z,3.12
2018-12-01T12:07:51.516Z,3.35
2018-12-01T12:10:19.721Z,3.10
2018-12-01T12:12:47.913Z,2.90
2018-12-01T12:15:16.155Z,3.45
2018-12-01T12:17:45.891Z,2.55
2018-12-01T12:20:14.085Z,2.98
2018-12-01T12:22:42.391Z,3.50
2018-12-01T12:25:10.915Z,3.15
2018-12-01T12:27:39.148Z,3.10
2018-12-01T12:30:12.491Z,3.20
2018-12-01T12:32:40.741Z,3.52
2018-12-01T12:35:10.123Z,3.47
2018-12-01T12:37:38.328Z,2.75
2018-12-01T12:40:11.250Z,2.83
2018-12-01T12:42:39.448Z,2.60
2018-12-01T12:45:09.959Z,2.90
2018-12-01T12:47:38.220Z,7.30
2018-12-01T12:50:11.888Z,2.90
2018-12-01T12:52:40.180Z,2.77
2018-12-01T12:55:10.868Z,3.08
2018-12-01T12:57:39.095Z,3.12
2018-12-01T13:00:14.185Z,2.80
2018-12-01T13:02:43.630Z,2.67
2018-12-01T13:05:15.164Z,2.72
2018-12-01T13:07:43.557Z,2.45
2018-12-01T13:10:16.107Z,2.90
2018-12-01T13:12:44.411Z,2.85
2018-12-01T13:15:13.452Z,3.10
2018-12-01T13:17:41.644Z,2.60
2018-12-01T13:20:14.001Z,3.00
2018-12-01T13:22:42.271Z,2.95
2018-12-01T13:25:12.395Z,3.00
2018-12-01T13:27:42.021Z,2.80
2018-12-01T13:30:12.992Z,2.72
2018-12-01T13:32:41.226Z,3.20
2018-12-01T13:35:09.434Z,2.85
2018-12-01T13:37:37.709Z,2.80
2018-12-01T13:40:08.921Z,3.15
2018-12-01T13:42:37.164Z,2.58
2018-12-01T13:45:07.537Z,2.58
2018-12-01T13:47:35.774Z,2.60
2018-12-01T13:50:04.715Z,2.58
2018-12-01T13:52:32.913Z,1.87
2018-12-01T13:55:01.233Z,3.22
2018-12-01T13:57:29.455Z,3.17
2018-12-01T13:59:57.689Z,2.80
2018-12-01T14:02:25.888Z,2.80
2018-12-01T14:04:54.116Z,3.00
2018-12-01T14:07:22.313Z,3.00
2018-12-01T14:09:50.536Z,2.20
2018-12-01T14:12:18.735Z,2.60
2018-12-01T14:14:46.977Z,2.30
2018-12-01T14:17:15.184Z,2.70
2018-12-01T14:19:43.369Z,2.62
2018-12-01T14:22:11.643Z,3.75
2018-12-01T14:24:39.841Z,2.80
2018-12-01T14:27:08.062Z,3.27
2018-12-01T14:29:36.285Z,3.17
2018-12-01T14:32:04.481Z,3.08
2018-12-01T14:34:32.707Z,2.65
2018-12-01T14:37:00.946Z,3.25
2018-12-01T14:39:29.220Z,4.12
2018-12-01T14:41:57.367Z,2.37
2018-12-01T14:44:25.580Z,3.10
2018-12-01T14:46:53.803Z,2.90
2018-12-01T14:49:21.991Z,2.35
2018-12-01T14:51:50.240Z,2.92
2018-12-01T14:54:18.424Z,3.47
2018-12-01T14:56:46.603Z,3.02
2018-12-01T14:59:14.800Z,2.60
2018-12-01T15:01:42.986Z,2.50
2018-12-01T15:04:11.299Z,2.98
2018-12-01T15:06:39.601Z,2.50
2018-12-01T15:09:09.562Z,3.05
2018-12-01T15:11:38.567Z,2.65
2018-12-01T15:14:06.891Z,2.72
2018-12-01T15:16:35.072Z,2.80
2018-12-01T15:19:03.272Z,2.60
2018-12-01T15:21:31.482Z,2.80
2018-12-01T15:23:59.695Z,2.27
2018-12-01T15:26:27.857Z,3.05
2018-12-01T15:28:56.048Z,2.98
2018-12-01T15:31:24.281Z,2.70
2018-12-01T15:33:52.510Z,3.72
2018-12-01T15:36:20.875Z,3.12
2018-12-01T15:38:49.164Z,3.10
2018-12-01T15:41:18.378Z,3.02
2018-12-01T15:43:46.619Z,2.75
2018-12-01T15:46:14.776Z,2.90
2018-12-01T15:48:42.963Z,2.30
2018-12-01T15:51:11.158Z,3.02
2018-12-01T15:53:39.379Z,2.35
2018-12-01T15:56:07.623Z,2.12
2018-12-01T15:58:35.815Z,2.65
2018-12-01T16:01:03.994Z,2.10
2018-12-01T16:03:32.177Z,2.65
2018-12-01T16:06:00.409Z,2.27
2018-12-01T16:08:28.636Z,2.80
2018-12-01T16:10:56.813Z,1.85
2018-12-01T16:13:25.913Z,2.12
2018-12-01T16:15:59.511Z,2.22
2018-12-01T16:18:27.758Z,2.70
2018-12-01T16:20:55.980Z,2.37
2018-12-01T16:23:24.173Z,2.40
2018-12-01T16:25:52.346Z,2.45
2018-12-01T16:28:20.509Z,2.10
2018-12-01T16:30:48.699Z,1.90
2018-12-01T16:33:18.833Z,1.60
2018-12-01T16:35:46.331Z,2.30
2018-12-01T16:38:20.385Z,1.90
2018-12-01T16:40:54.820Z,1.82
2018-12-01T16:43:23.088Z,2.30
2018-12-01T16:45:51.953Z,1.80
2018-12-01T16:48:20.618Z,1.92
2018-12-01T16:50:48.795Z,2.10
2018-12-01T16:53:18.388Z,1.92
2018-12-01T16:55:46.614Z,1.80
2018-12-01T16:58:14.805Z,2.05
2018-12-01T17:00:43.253Z,1.82
2018-12-01T17:03:12.052Z,1.95
2018-12-01T17:05:45.168Z,1.87
2018-12-01T17:08:13.354Z,1.87
2018-12-01T17:10:41.641Z,2.17
2018-12-01T17:13:09.874Z,2.10
2018-12-01T17:15:38.125Z,2.08
2018-12-01T17:18:07.922Z,1.70
2018-12-01T17:20:36.195Z,2.02
2018-12-01T17:23:06.853Z,2.05
2018-12-01T17:25:35.116Z,2.00
2018-12-01T17:28:03.356Z,2.05
2018-12-01T17:30:31.580Z,2.42
2018-12-01T17:33:00.254Z,2.10
2018-12-01T17:35:29.756Z,2.20
2018-12-01T17:38:00.987Z,2.42
2018-12-01T17:40:35.864Z,1.90
2018-12-01T17:43:05.237Z,1.80
2018-12-01T17:45:33.413Z,1.77
2018-12-01T17:48:01.603Z,1.98
2018-12-01T17:50:29.817Z,2.12
2018-12-01T17:52:58.011Z,1.77
2018-12-01T17:55:27.554Z,1.98
2018-12-01T17:57:55.857Z,2.00
2018-12-01T18:00:26.499Z,2.25
2018-12-01T18:02:56.783Z,2.00
2018-12-01T18:05:42.740Z,1.98
2018-12-01T18:08:16.345Z,1.92
2018-12-01T18:10:45.797Z,2.00
2018-12-01T18:13:13.963Z,1.80
2018-12-01T18:15:43.149Z,2.22
2018-12-01T18:18:11.377Z,2.50
2018-12-01T18:20:39.576Z,1.75
2018-12-01T18:23:09.429Z,2.20
2018-12-01T18:25:42.620Z,1.52
2018-12-01T18:28:12.615Z,2.02
2018-12-01T18:30:41.409Z,1.75
2018-12-01T18:33:12.148Z,2.08
2018-12-01T18:35:40.686Z,1.67
2018-12-01T18:38:09.803Z,2.65
2018-12-01T18:40:38.026Z,2.83
2018-12-01T18:43:06.932Z,2.15
2018-12-01T18:45:35.261Z,2.10
2018-12-01T18:48:03.580Z,2.22
2018-12-01T18:50:31.891Z,2.00
2018-12-01T18:53:02.380Z,2.10
2018-12-01T18:55:32.669Z,2.15
2018-12-01T18:58:00.937Z,1.90
2018-12-01T19:00:34.484Z,1.90
2018-12-01T19:03:02.680Z,2.33
2018-12-01T19:05:30.866Z,2.10
2018-12-01T19:07:59.056Z,2.33
2018-12-01T19:10:27.247Z,1.62
2018-12-01T19:12:55.463Z,2.00
2018-12-01T19:15:23.741Z,1.90
2018-12-01T19:17:51.956Z,2.05
2018-12-01T19:20:20.140Z,2.10
2018-12-01T19:22:49.117Z,1.65
2018-12-01T19:25:20.243Z,2.10
2018-12-01T19:27:48.952Z,1.80
2018-12-01T19:30:18.988Z,1.80
2018-12-01T19:32:52.361Z,1.27
2018-12-01T19:35:20.541Z,1.97
2018-12-01T19:37:49.967Z,1.70
2018-12-01T19:40:28.701Z,2.17
2018-12-01T19:42:54.608Z,1.70
2018-12-01T19:45:22.881Z,1.60
2018-12-01T19:47:51.208Z,1.55
2018-12-01T19:50:22.552Z,1.80
2018-12-01T19:52:50.780Z,2.00
2018-12-01T19:55:21.500Z,1.67
2018-12-01T19:57:49.763Z,1.50
2018-12-01T20:00:19.176Z,1.55
2018-12-01T20:02:47.543Z,1.30
2018-12-01T20:05:16.874Z,1.80
2018-12-01T20:07:45.284Z,1.90
2018-12-01T20:10:22.643Z,1.98
2018-12-01T20:12:53.252Z,1.73
2018-12-01T20:15:27.078Z,1.65
2018-12-01T20:17:55.325Z,2.02
2018-12-01T20:20:23.598Z,1.50
2018-12-01T20:22:51.788Z,2.10
2018-12-01T20:25:20.009Z,1.60
2018-12-01T20:27:48.250Z,1.57
2018-12-01T20:30:19.788Z,1.57
2018-12-01T20:32:48.066Z,1.77
2018-12-01T20:35:18.669Z,1.70
2018-12-01T20:37:50.145Z,1.95
2018-12-01T20:40:18.436Z,2.08
2018-12-01T20:42:46.719Z,1.90
2018-12-01T20:45:14.892Z,1.95
2018-12-01T20:47:43.097Z,1.90
2018-12-01T20:50:15.230Z,2.12
2018-12-01T20:52:44.820Z,1.85
2018-12-01T20:55:17.501Z,1.67
2018-12-01T20:57:50.603Z,2.62
2018-12-01T21:00:18.820Z,2.27
2018-12-01T21:02:47.008Z,1.45
2018-12-01T21:05:16.939Z,2.25
2018-12-01T21:07:45.124Z,1.70
2018-12-01T21:10:17.176Z,1.77
2018-12-01T21:12:45.439Z,2.15
2018-12-01T21:15:13.996Z,1.70
2018-12-01T21:17:43.139Z,1.70
2018-12-01T21:20:12.532Z,1.87
2018-12-01T21:22:41.111Z,1.85
2018-12-01T21:25:11.496Z,1.35
2018-12-01T21:27:40.009Z,1.85
2018-12-01T21:30:19.782Z,1.77
2018-12-01T21:32:49.709Z,1.60
2018-12-01T21:35:18.340Z,1.77
2018-12-01T21:37:46.579Z,1.83
2018-12-01T21:40:16.283Z,2.02
2018-12-01T21:42:44.516Z,1.87
2018-12-01T21:45:14.705Z,1.60
2018-12-01T21:47:42.984Z,1.85
2018-12-01T21:50:13.448Z,1.70
2018-12-01T21:52:42.680Z,1.90
2018-12-01T21:55:11.625Z,1.62
2018-12-01T21:57:41.086Z,1.98
2018-12-01T22:00:17.464Z,1.90
2018-12-01T22:02:47.255Z,1.70
2018-12-01T22:05:18.124Z,1.70
2018-12-01T22:07:46.333Z,1.65
2018-12-01T22:10:15.536Z,1.57
2018-12-01T22:12:43.673Z,2.10
2018-12-01T22:15:17.202Z,1.50
2018-12-01T22:17:45.477Z,1.67
2018-12-01T22:20:19.895Z,2.00
2018-12-01T22:22:48.278Z,1.75
2018-12-01T22:25:16.430Z,2.02
2018-12-01T22:27:44.853Z,1.98
2018-12-01T22:30:18.131Z,1.45
2018-12-01T22:33:01.266Z,1.80
2018-12-01T22:35:29.912Z,1.85
2018-12-01T22:37:58.863Z,1.80
2018-12-01T22:40:29.419Z,1.50
2018-12-01T22:43:00.706Z,1.80
2018-12-01T22:45:28.896Z,1.85
2018-12-01T22:47:57.449Z,2.27
2018-12-01T22:50:25.654Z,1.90
2018-12-01T22:52:54.328Z,2.20
2018-12-01T22:55:23.819Z,1.75
2018-12-01T22:57:53.241Z,1.92
2018-12-01T23:00:22.643Z,1.90
2018-12-01T23:02:50.812Z,2.47
2018-12-01T23:05:19.000Z,2.60
2018-12-01T23:07:47.224Z,3.72
2018-12-01T23:10:16.308Z,3.30
2018-12-01T23:12:45.592Z,1.77
2018-12-01T23:15:14.965Z,2.30
2018-12-01T23:17:44.564Z,1.90
2018-12-01T23:20:17.033Z,1.70
2018-12-01T23:22:45.313Z,2.08
2018-12-01T23:25:13.491Z,1.90
2018-12-01T23:27:41.664Z,1.72
2018-12-01T23:30:16.818Z,1.90
2018-12-01T23:32:45.980Z,1.70
2018-12-01T23:35:14.221Z,1.67
2018-12-01T23:37:42.393Z,1.77
2018-12-01T23:40:11.770Z,2.05
2018-12-01T23:42:40.016Z,2.10
2018-12-01T23:45:15.206Z,1.75
2018-12-01T23:47:43.750Z,2.20
2018-12-01T23:50:15.003Z,1.77
2018-12-01T23:52:43.638Z,1.87
2018-12-01T23:55:12.880Z,1.30
2018-12-01T23:57:41.043Z,1.30
